createdAt,value
2023-10-04T00:01:46.967Z,11.84
2023-10-04T00:06:50.046Z,11.99
2023-10-04T00:11:51.644Z,11.82
2023-10-04T00:16:53.597Z,11.82
2023-10-04T00:21:56.506Z,11.75
2023-10-04T00:26:58.168Z,11.71
2023-10-04T00:31:59.734Z,11.66
2023-10-04T00:37:02.716Z,11.76
2023-10-04T00:42:04.257Z,11.70
2023-10-04T00:47:06.543Z,11.61
2023-10-04T00:52:09.600Z,11.53
2023-10-04T00:57:11.266Z,11.49
2023-10-04T01:02:12.877Z,11.28
2023-10-04T01:07:18.008Z,11.28
2023-10-04T01:12:22.676Z,11.39
2023-10-04T01:17:24.314Z,11.44
2023-10-04T01:22:28.207Z,11.13
2023-10-04T01:27:29.841Z,11.21
2023-10-04T01:32:31.461Z,11.13
2023-10-04T01:37:34.326Z,11.15
2023-10-04T01:42:35.925Z,11.14
2023-10-04T01:47:37.729Z,11.06
2023-10-04T01:52:40.721Z,10.99
2023-10-04T01:57:42.299Z,11.00
2023-10-04T02:02:44.895Z,10.78
2023-10-04T02:07:48.042Z,10.88
2023-10-04T02:12:50.855Z,11.08
2023-10-04T02:17:52.479Z,11.14
2023-10-04T02:22:55.467Z,11.12
2023-10-04T02:27:57.048Z,10.87
2023-10-04T02:32:58.754Z,10.79
2023-10-04T02:38:02.545Z,10.70
2023-10-04T02:43:04.454Z,10.32
2023-10-04T02:48:06.838Z,9.79
2023-10-04T02:53:10.355Z,9.46
2023-10-04T02:58:11.952Z,9.33
2023-10-04T03:03:15.041Z,9.66
2023-10-04T03:08:18.558Z,10.03
2023-10-04T03:13:22.482Z,9.97
2023-10-04T03:18:24.106Z,9.80
2023-10-04T03:23:27.683Z,9.84
2023-10-04T03:28:29.250Z,9.66
2023-10-04T03:33:30.820Z,9.19
2023-10-04T03:38:34.012Z,9.00
2023-10-04T03:43:35.570Z,8.93
2023-10-04T03:48:37.224Z,8.93
2023-10-04T03:53:40.835Z,8.91
2023-10-04T03:58:42.336Z,8.89
2023-10-04T04:03:45.002Z,8.88
2023-10-04T04:08:48.438Z,8.88
2023-10-04T04:13:50.374Z,8.90
2023-10-04T04:18:51.968Z,8.93
2023-10-04T04:23:55.209Z,8.96
2023-10-04T04:28:56.852Z,9.08
2023-10-04T04:33:58.486Z,9.24
2023-10-04T04:39:01.691Z,9.47
2023-10-04T04:44:03.320Z,9.58
2023-10-04T04:49:05.596Z,9.58
2023-10-04T04:54:08.910Z,9.34
2023-10-04T04:59:10.580Z,9.19
2023-10-04T05:04:12.370Z,9.01
2023-10-04T05:09:15.443Z,8.89
2023-10-04T05:14:17.040Z,8.81
2023-10-04T05:19:18.615Z,8.81
2023-10-04T05:24:21.570Z,8.74
2023-10-04T05:29:23.215Z,8.65
2023-10-04T05:34:24.843Z,8.64
2023-10-04T05:39:27.821Z,8.54
2023-10-04T05:44:29.349Z,8.57
2023-10-04T05:49:32.391Z,8.56
2023-10-04T05:54:35.414Z,8.67
2023-10-04T05:59:37.015Z,8.69
2023-10-04T06:04:38.638Z,8.89
2023-10-04T06:09:41.883Z,8.99
2023-10-04T06:14:43.449Z,9.25
2023-10-04T06:19:45.072Z,9.52
2023-10-04T06:24:47.972Z,9.72
2023-10-04T06:29:49.534Z,9.85
2023-10-04T06:34:51.161Z,10.08
2023-10-04T06:39:54.122Z,10.24
2023-10-04T06:44:55.621Z,10.37
2023-10-04T06:49:57.288Z,10.39
2023-10-04T06:55:00.720Z,10.49
2023-10-04T07:00:02.462Z,10.62
2023-10-04T07:05:04.219Z,10.82
2023-10-04T07:10:08.513Z,10.96
2023-10-04T07:15:11.388Z,11.37
2023-10-04T07:20:13.597Z,11.71
2023-10-04T07:25:16.487Z,11.96
2023-10-04T07:30:18.008Z,11.92
2023-10-04T07:35:20.916Z,12.00
2023-10-04T07:40:25.270Z,12.14
2023-10-04T07:45:27.616Z,12.38
2023-10-04T07:50:29.333Z,12.48
2023-10-04T07:55:32.288Z,12.55
2023-10-04T08:00:35.308Z,12.71
2023-10-04T08:05:37.312Z,12.84
2023-10-04T08:10:40.769Z,12.99
2023-10-04T08:15:42.416Z,13.13
2023-10-04T08:20:44.074Z,13.30
2023-10-04T08:25:47.073Z,13.53
2023-10-04T08:30:48.899Z,13.55
2023-10-04T08:35:50.530Z,13.83
2023-10-04T08:40:53.490Z,13.90
2023-10-04T08:45:57.516Z,14.08
2023-10-04T08:51:08.702Z,14.59
2023-10-04T08:56:14.957Z,14.35
2023-10-04T09:01:35.717Z,14.66
2023-10-04T09:06:37.643Z,14.47
2023-10-04T09:11:40.672Z,14.72
2023-10-04T09:16:42.389Z,14.82
2023-10-04T09:21:44.518Z,14.92
2023-10-04T09:26:54.010Z,15.10
2023-10-04T09:31:55.613Z,15.02
2023-10-04T09:36:58.055Z,15.14
2023-10-04T09:42:01.762Z,15.07
2023-10-04T09:47:04.286Z,15.05
2023-10-04T09:52:08.096Z,15.39
2023-10-04T09:57:11.185Z,15.74
2023-10-04T10:02:15.373Z,15.87
2023-10-04T10:07:20.722Z,15.73
2023-10-04T10:12:24.371Z,15.41
2023-10-04T10:17:26.174Z,15.73
2023-10-04T10:22:28.348Z,15.63
2023-10-04T10:27:31.245Z,15.91
2023-10-04T10:32:32.895Z,15.95
2023-10-04T10:37:34.588Z,15.82
2023-10-04T10:43:05.937Z,15.45
2023-10-04T10:48:08.928Z,15.58
2023-10-04T10:53:11.847Z,15.69
2023-10-04T10:58:13.759Z,15.61
2023-10-04T11:03:19.792Z,15.48
2023-10-04T11:08:21.569Z,15.76
2023-10-04T11:13:25.398Z,15.65
2023-10-04T11:18:30.092Z,15.69
2023-10-04T11:23:31.851Z,15.53
2023-10-04T11:28:33.980Z,15.66
2023-10-04T11:33:50.552Z,15.52
2023-10-04T11:38:53.169Z,15.51
2023-10-04T11:43:58.210Z,15.72
2023-10-04T11:49:16.026Z,15.99
2023-10-04T11:54:17.927Z,15.74
2023-10-04T11:59:29.230Z,15.67
2023-10-04T12:04:33.752Z,15.58
2023-10-04T12:09:35.611Z,15.54
2023-10-04T12:14:37.280Z,15.66
2023-10-04T12:19:40.646Z,15.89
2023-10-04T12:24:42.668Z,15.93
2023-10-04T12:29:44.490Z,15.82
2023-10-04T12:34:47.971Z,15.93
2023-10-04T12:39:49.725Z,15.96
2023-10-04T12:44:52.950Z,16.09
2023-10-04T12:49:57.802Z,15.95
2023-10-04T12:54:59.369Z,16.08
2023-10-04T13:00:01.474Z,16.14
2023-10-04T13:05:05.135Z,16.12
2023-10-04T13:10:07.618Z,16.28
2023-10-04T13:15:10.492Z,16.09
2023-10-04T13:20:13.513Z,16.23
2023-10-04T13:25:15.341Z,16.31
2023-10-04T13:30:16.903Z,16.20
2023-10-04T13:35:19.798Z,16.39
2023-10-04T13:40:21.665Z,15.99
2023-10-04T13:45:23.373Z,16.24
2023-10-04T13:50:26.359Z,16.21
2023-10-04T13:55:27.867Z,16.41
2023-10-04T14:00:29.565Z,16.20
2023-10-04T14:05:32.650Z,16.24
2023-10-04T14:10:34.599Z,16.32
2023-10-04T14:15:36.138Z,16.21
2023-10-04T14:20:39.074Z,16.11
2023-10-04T14:25:40.826Z,16.10
2023-10-04T14:30:42.387Z,16.28
2023-10-04T14:35:46.601Z,15.98
2023-10-04T14:45:52.664Z,15.97
2023-10-04T14:56:03.220Z,15.95
2023-10-04T15:01:09.695Z,15.86
2023-10-04T15:06:15.739Z,16.05
2023-10-04T15:11:26.685Z,16.02
2023-10-04T15:16:28.364Z,16.10
2023-10-04T15:21:31.520Z,15.96
2023-10-04T15:26:33.111Z,16.00
2023-10-04T15:31:34.745Z,16.02
2023-10-04T15:36:37.784Z,15.66
2023-10-04T15:41:39.318Z,15.59
2023-10-04T15:46:41.023Z,15.40
2023-10-04T15:51:44.204Z,15.15
2023-10-04T15:56:45.834Z,14.97
2023-10-04T16:01:49.309Z,14.90
2023-10-04T16:06:52.431Z,14.83
2023-10-04T16:11:54.059Z,14.64
2023-10-04T16:16:55.669Z,14.56
2023-10-04T16:21:58.650Z,14.55
2023-10-04T16:27:00.247Z,14.45
2023-10-04T16:32:01.873Z,14.15
2023-10-04T16:37:04.941Z,14.06
2023-10-04T16:42:06.597Z,13.62
2023-10-04T16:47:08.175Z,13.25
2023-10-04T16:52:11.106Z,13.01
2023-10-04T16:57:12.652Z,13.08
2023-10-04T17:02:14.240Z,13.03
2023-10-04T17:07:17.382Z,12.86
2023-10-04T17:12:18.983Z,12.66
2023-10-04T17:17:20.601Z,12.50
2023-10-04T17:22:23.642Z,12.33
2023-10-04T17:27:25.250Z,12.18
2023-10-04T17:32:27.049Z,12.12
2023-10-04T17:37:30.068Z,12.24
2023-10-04T17:42:32.567Z,12.42
2023-10-04T17:47:34.251Z,12.47
2023-10-04T17:52:37.227Z,12.20
2023-10-04T17:57:39.442Z,12.07
2023-10-04T18:02:41.875Z,11.87
2023-10-04T18:07:44.886Z,11.82
2023-10-04T18:12:46.682Z,11.86
2023-10-04T18:17:49.344Z,11.78
2023-10-04T18:22:55.203Z,11.80
2023-10-04T18:27:56.854Z,11.45
2023-10-04T18:33:01.067Z,11.37
2023-10-04T18:38:05.380Z,11.50
2023-10-04T18:43:07.009Z,11.15
2023-10-04T18:48:08.761Z,10.98
2023-10-04T18:53:13.644Z,10.96
2023-10-04T18:58:15.423Z,10.94
2023-10-04T19:03:17.254Z,11.13
2023-10-04T19:08:20.338Z,11.02
2023-10-04T19:13:21.971Z,10.90
2023-10-04T19:18:23.581Z,10.79
2023-10-04T19:23:26.825Z,10.98
2023-10-04T19:28:28.652Z,10.94
2023-10-04T19:33:31.610Z,11.02
2023-10-04T19:38:34.693Z,10.94
2023-10-04T19:43:36.234Z,10.92
2023-10-04T19:48:39.290Z,10.78
2023-10-04T19:53:44.037Z,11.02
2023-10-04T19:58:45.639Z,10.96
2023-10-04T20:03:47.400Z,10.75
2023-10-04T20:08:50.779Z,10.67
2023-10-04T20:13:52.429Z,10.65
2023-10-04T20:18:54.005Z,10.63
2023-10-04T20:23:57.001Z,10.48
2023-10-04T20:28:58.722Z,10.33
2023-10-04T20:34:00.460Z,10.31
2023-10-04T20:39:03.563Z,10.26
2023-10-04T20:44:06.015Z,10.22
2023-10-04T20:49:07.976Z,9.95
2023-10-04T20:54:11.002Z,9.76
2023-10-04T20:59:12.600Z,9.73
2023-10-04T21:04:14.531Z,9.91
2023-10-04T21:09:17.491Z,10.10
2023-10-04T21:14:22.538Z,10.10
2023-10-04T21:19:24.204Z,10.06
2023-10-04T21:24:27.183Z,9.94
2023-10-04T21:29:28.842Z,9.69
2023-10-04T21:34:30.477Z,9.58
2023-10-04T21:39:33.465Z,9.57
2023-10-04T21:44:34.981Z,9.61
2023-10-04T21:49:36.805Z,9.65
2023-10-04T21:54:39.694Z,9.83
2023-10-04T21:59:41.281Z,9.87
2023-10-04T22:04:42.947Z,9.80
2023-10-04T22:09:46.410Z,9.69
2023-10-04T22:14:48.049Z,9.82
2023-10-04T22:19:49.606Z,9.78
2023-10-04T22:25:02.468Z,9.93
2023-10-04T22:30:06.181Z,9.92
2023-10-04T22:35:08.944Z,9.72
2023-10-04T22:40:15.069Z,9.60
2023-10-04T22:45:17.157Z,9.70
2023-10-04T22:50:19.282Z,9.86
2023-10-04T22:55:22.262Z,9.94
2023-10-04T23:00:24.034Z,10.01
2023-10-04T23:05:26.123Z,9.90
2023-10-04T23:10:29.295Z,9.96
2023-10-04T23:15:31.120Z,9.83
2023-10-04T23:20:32.791Z,9.86
2023-10-04T23:25:35.709Z,9.92
2023-10-04T23:30:37.235Z,10.03
2023-10-04T23:35:38.858Z,10.03
2023-10-04T23:40:42.204Z,9.99
2023-10-04T23:45:43.866Z,9.98
2023-10-04T23:50:45.412Z,9.96
2023-10-04T23:55:50.132Z,9.70
